Airfield :
LOGIN :

Register | Disclaimer

   EN    FR    IT 

 










Legend :    VFR   Marginal VFR   IFR   Intensive IFR   Very Intensive IFR
Visi :
Ceiling :
>= 8 km
>= 3000ft
5 to 8 km
1000 to 3000 ft
1500m to 5 km
500 to 1000 ft
800 to 1500m
200 to 500 ft
< 800m
< 200 ft
Symbols :   Thunderstorms  Fog  Heavy snow  Heavy precipitations  Wind > 20 kt
SIGMETs :     Misc.  Thunderstorms  Icing  Turbulence  Mountain Waves  Volcanic Ashes







- Airport Elevation : 587 ft
- IATA code : XCR
- Download approach charts


LFOK - Chalons Vatry

CURRENT METAR :
  • 140330Z AUTO 25018KT CAVOK 05/01 Q1001 BECMG 25020G30KT

EXPIRED METARs :
  • 140300Z AUTO 26021KT 9999 FEW034 05/01 Q1001 BECMG 25020G30KT
  • 140230Z AUTO 27026G36KT 9999 FEW034 06/01 Q1000 NOSIG
  • 140200Z AUTO 26023KT 9999 BKN033 BKN040 BKN100 06/03 Q0999 TEMPO 2000 SHRA BKN013CB BECMG 25020G30KT
  • 140130Z AUTO 25025KT 9999 FEW020/// SCT034/// OVC088/// ///CB 06/03 Q0998 TEMPO 2000 SHRA BECMG 25020G30KT BKN030
  • 140100Z AUTO 23028KT 9999 FEW022/// BKN028/// OVC034/// ///CB 08/05 Q0997 TEMPO 25020G40KT 2000 SHRA BKN013CB

TAF TAF LFOK
Valid from the 14 at 00:00 until the 15 at 00:00 UTC


132300Z 1400/1424 25020G30KT 9999 BKN030
TEMPO 1400/1403 25020G40KT 2000 SHRA BKN013CB
PROB30 1400/1402 25030G55KT TSRA
TEMPO 1410/1422 2000 SHRA BKN007 BKN013CB
PROB30
TEMPO 1410/1422 TSRA
No reported NOTAMs for that airfield.
2 SIGMETs reported for the Paris FIR (LFFF) :
 
Severe turbulence
LFFF SIGMET 3 VALID 140350/140700 LFPW
LFFF PARIS FIR/UIR SEV TURB OBS WI N4945 W00015 - N5000 W00015 - N5115 E00200 - N5100 E00230 - N5015 E00130 - N4945 W00015 SFC/FL050 STNR WKN=
Severe turbulence
LFFF SIGMET 2 VALID 140300/140400 LFPW
LFFF PARIS FIR/UIR SEV TURB FCST WI N4945 E00515 - N4930 E00600 - N4900 E00445 - N4830 E00530 - N4745 E00445 - N4815 E00430 - N4945 E00515 SFC/FL070 MOV E 45KT NC=



MET'MAP, your aeronautical weather chart ! - Copyright ORBIFLY December 2007 - Disclaimer

ORBIFLY MET'MAP TEAM :

Programming & Development : Alexandra Zaïnal
Concept & Development : Baudouin d'Aumeries
Co-Development & Prog : Marc-Olivier Méhu
Technical & hardware support : Manuel Goepfert

Contact : metmap@orbifly.com




SOURCES & CREDITS :

   NOAA